createdAt,value
2018-02-02T00:00:36.848Z,0
2018-02-02T00:01:17.388Z,0
2018-02-02T00:01:57.929Z,0
2018-02-02T00:02:38.461Z,0
2018-02-02T00:03:18.966Z,0
2018-02-02T00:03:59.572Z,0
2018-02-02T00:04:40.070Z,0
2018-02-02T00:05:20.666Z,0
2018-02-02T00:06:01.165Z,0
2018-02-02T00:06:41.700Z,0
2018-02-02T00:07:22.231Z,0
2018-02-02T00:08:02.744Z,0
2018-02-02T00:08:43.310Z,0
2018-02-02T00:09:23.917Z,0
2018-02-02T00:10:04.381Z,0
2018-02-02T00:10:45.147Z,0
2018-02-02T00:11:25.635Z,0
2018-02-02T00:12:06.189Z,0
2018-02-02T00:12:46.729Z,0
2018-02-02T00:13:27.311Z,0
2018-02-02T00:14:07.816Z,0
2018-02-02T00:14:48.398Z,0
2018-02-02T00:15:28.954Z,0
2018-02-02T00:16:09.492Z,0
2018-02-02T00:16:50.033Z,0
2018-02-02T00:17:30.556Z,0
2018-02-02T00:18:11.116Z,0
2018-02-02T00:18:51.670Z,0
2018-02-02T00:19:32.164Z,0
2018-02-02T00:20:12.744Z,0
2018-02-02T00:20:53.215Z,0
2018-02-02T00:21:33.817Z,0
2018-02-02T00:22:14.362Z,0
2018-02-02T00:22:54.871Z,0
2018-02-02T00:23:35.396Z,0
2018-02-02T00:24:15.954Z,0
2018-02-02T00:24:56.444Z,0
2018-02-02T00:25:37.170Z,0
2018-02-02T00:26:17.597Z,0
2018-02-02T00:26:58.156Z,0
2018-02-02T00:27:38.921Z,0
2018-02-02T00:28:19.292Z,0
2018-02-02T00:28:59.795Z,0
2018-02-02T00:29:40.587Z,0
2018-02-02T00:30:21.063Z,0
2018-02-02T00:31:01.564Z,0
2018-02-02T00:31:42.128Z,0
2018-02-02T00:32:22.682Z,0
2018-02-02T00:33:03.262Z,0
2018-02-02T00:33:44.209Z,0
2018-02-02T00:34:25.063Z,0
2018-02-02T00:35:05.865Z,0
2018-02-02T00:35:46.794Z,0
2018-02-02T00:36:27.721Z,0
2018-02-02T00:37:08.452Z,0
2018-02-02T00:37:48.928Z,0
2018-02-02T00:38:29.333Z,0
2018-02-02T00:39:10.072Z,0
2018-02-02T00:39:50.526Z,0
2018-02-02T00:40:31.042Z,0
2018-02-02T00:41:11.608Z,0
2018-02-02T00:41:52.194Z,0
2018-02-02T00:42:32.713Z,0
2018-02-02T00:43:13.239Z,0
2018-02-02T00:43:53.797Z,0
2018-02-02T00:44:34.291Z,0
2018-02-02T00:45:14.817Z,0
2018-02-02T00:45:55.402Z,0
2018-02-02T00:46:35.893Z,0
2018-02-02T00:47:16.412Z,0
2018-02-02T00:47:56.986Z,0
2018-02-02T00:48:37.556Z,0
2018-02-02T00:49:18.065Z,0
2018-02-02T00:49:58.634Z,0
2018-02-02T00:50:39.119Z,0
2018-02-02T00:51:19.730Z,0
2018-02-02T00:52:00.232Z,0
2018-02-02T00:52:40.708Z,0
2018-02-02T00:53:21.297Z,0
2018-02-02T00:54:01.740Z,0
2018-02-02T00:54:42.326Z,0
2018-02-02T00:55:22.816Z,0
2018-02-02T00:56:03.349Z,0
2018-02-02T00:56:43.912Z,0
2018-02-02T00:57:24.439Z,0
2018-02-02T00:58:04.967Z,0
2018-02-02T00:58:45.529Z,0
2018-02-02T00:59:26.022Z,0
2018-02-02T01:00:06.584Z,0
2018-02-02T01:00:47.149Z,0
2018-02-02T01:01:27.669Z,0
2018-02-02T01:02:08.223Z,0
2018-02-02T01:02:48.743Z,0
2018-02-02T01:03:29.305Z,0
2018-02-02T01:04:09.749Z,0
2018-02-02T01:04:50.290Z,0
2018-02-02T01:05:30.807Z,0
2018-02-02T01:06:11.320Z,0
2018-02-02T01:06:51.833Z,0
2018-02-02T01:07:32.343Z,0
2018-02-02T01:08:12.891Z,0
2018-02-02T01:08:53.401Z,0
2018-02-02T01:09:33.947Z,0
2018-02-02T01:10:14.485Z,0
2018-02-02T01:10:55.030Z,0
2018-02-02T01:11:35.597Z,0
2018-02-02T01:12:16.125Z,0
2018-02-02T01:12:56.653Z,0
2018-02-02T01:13:37.176Z,0
2018-02-02T01:14:17.737Z,0
2018-02-02T01:14:58.292Z,0
2018-02-02T01:15:38.813Z,0
2018-02-02T01:16:19.336Z,0
2018-02-02T01:16:59.871Z,0
2018-02-02T01:17:40.428Z,0
2018-02-02T01:18:21.002Z,0
2018-02-02T01:19:01.492Z,0
2018-02-02T01:19:42.051Z,0
2018-02-02T01:20:22.595Z,0
2018-02-02T01:21:03.112Z,0
2018-02-02T01:21:43.699Z,0
2018-02-02T01:22:24.221Z,0
2018-02-02T01:23:04.735Z,0
2018-02-02T01:23:45.300Z,0
2018-02-02T01:24:25.821Z,0
2018-02-02T01:25:06.338Z,0
2018-02-02T01:25:46.897Z,0
2018-02-02T01:26:27.436Z,0
2018-02-02T01:27:07.904Z,0
2018-02-02T01:27:48.451Z,0
2018-02-02T01:28:29.002Z,0
2018-02-02T01:29:09.581Z,0
2018-02-02T01:29:50.088Z,0
2018-02-02T01:30:30.585Z,0
2018-02-02T01:31:11.140Z,0
2018-02-02T01:31:51.711Z,0
2018-02-02T01:32:32.256Z,0
2018-02-02T01:33:12.811Z,0
2018-02-02T01:33:53.310Z,0
2018-02-02T01:34:33.863Z,0
2018-02-02T01:35:14.366Z,0
2018-02-02T01:35:54.876Z,0
2018-02-02T01:36:35.425Z,0
2018-02-02T01:37:15.959Z,0
2018-02-02T01:37:56.468Z,0
2018-02-02T01:38:37.063Z,0
2018-02-02T01:39:17.563Z,0
2018-02-02T01:39:58.096Z,0
2018-02-02T01:40:38.689Z,0
2018-02-02T01:41:19.230Z,0
2018-02-02T01:41:59.745Z,0
2018-02-02T01:42:40.283Z,0
2018-02-02T01:43:20.906Z,0
2018-02-02T01:44:01.394Z,0
2018-02-02T01:44:41.956Z,0
2018-02-02T01:45:22.478Z,0
2018-02-02T01:46:02.979Z,0
2018-02-02T01:46:43.610Z,0
2018-02-02T01:47:24.158Z,0
2018-02-02T01:48:04.694Z,0
2018-02-02T01:48:45.216Z,0
2018-02-02T01:49:25.798Z,0
2018-02-02T01:50:06.269Z,0
2018-02-02T01:50:46.806Z,0
2018-02-02T01:51:27.350Z,0
2018-02-02T01:52:07.928Z,0
2018-02-02T01:52:48.429Z,0
2018-02-02T01:53:28.961Z,0
2018-02-02T01:54:09.518Z,0
2018-02-02T01:54:50.036Z,0
2018-02-02T01:55:30.555Z,0
2018-02-02T01:56:11.082Z,0
2018-02-02T01:56:51.594Z,0
2018-02-02T01:57:32.134Z,0
2018-02-02T01:58:12.638Z,0
2018-02-02T01:58:53.137Z,0
2018-02-02T01:59:33.663Z,0
2018-02-02T02:00:14.174Z,0
2018-02-02T02:00:54.705Z,0
2018-02-02T02:01:35.287Z,0
2018-02-02T02:02:15.832Z,0
2018-02-02T02:02:56.376Z,0
2018-02-02T02:03:36.882Z,0
2018-02-02T02:04:17.418Z,0
2018-02-02T02:04:57.940Z,0
2018-02-02T02:05:38.520Z,0
2018-02-02T02:06:20.656Z,0
2018-02-02T02:07:01.195Z,0
2018-02-02T02:07:41.736Z,0
2018-02-02T02:08:22.292Z,0
2018-02-02T02:09:02.844Z,0
2018-02-02T02:09:43.443Z,0
2018-02-02T02:10:23.946Z,0
2018-02-02T02:11:04.584Z,0
2018-02-02T02:11:45.081Z,0
2018-02-02T02:12:25.558Z,0
2018-02-02T02:13:06.113Z,0
2018-02-02T02:13:46.647Z,0
2018-02-02T02:14:27.226Z,0
2018-02-02T02:15:07.716Z,0
2018-02-02T02:15:48.367Z,0
2018-02-02T02:16:28.884Z,0
2018-02-02T02:17:09.460Z,0
2018-02-02T02:17:49.965Z,0
2018-02-02T02:18:30.502Z,0
2018-02-02T02:19:11.114Z,0
2018-02-02T02:19:51.659Z,0
2018-02-02T02:20:32.205Z,0
2018-02-02T02:21:12.734Z,0
2018-02-02T02:21:53.270Z,0
2018-02-02T02:22:33.793Z,0
2018-02-02T02:23:14.380Z,0
2018-02-02T02:23:54.921Z,0
2018-02-02T02:24:35.440Z,0
2018-02-02T02:25:15.975Z,0
2018-02-02T02:25:56.539Z,0
2018-02-02T02:26:37.091Z,0
2018-02-02T02:27:17.600Z,0
2018-02-02T02:27:58.196Z,0
2018-02-02T02:28:38.684Z,0
2018-02-02T02:29:19.289Z,0
2018-02-02T02:29:59.797Z,0
2018-02-02T02:30:40.343Z,0
2018-02-02T02:31:20.884Z,0
2018-02-02T02:32:01.419Z,0
2018-02-02T02:32:42.005Z,0
2018-02-02T02:33:22.585Z,0
2018-02-02T02:34:03.127Z,0
2018-02-02T02:34:43.696Z,0
2018-02-02T02:35:24.220Z,0
2018-02-02T02:36:04.750Z,0
2018-02-02T02:36:45.289Z,0
2018-02-02T02:37:25.848Z,0
2018-02-02T02:38:06.390Z,0
2018-02-02T02:38:46.959Z,0
2018-02-02T02:39:27.499Z,0
2018-02-02T02:40:08.026Z,0
2018-02-02T02:40:48.560Z,0
2018-02-02T02:41:29.051Z,0
2018-02-02T02:42:09.653Z,0
2018-02-02T02:42:50.180Z,0
2018-02-02T02:43:30.674Z,0
2018-02-02T02:44:11.249Z,0
2018-02-02T02:44:51.806Z,0
2018-02-02T02:45:32.348Z,0
2018-02-02T02:46:12.870Z,0
2018-02-02T02:46:53.430Z,0
2018-02-02T02:47:33.950Z,0
2018-02-02T02:48:14.572Z,0
2018-02-02T02:48:55.105Z,0
2018-02-02T02:49:35.607Z,0
2018-02-02T02:50:16.144Z,0
2018-02-02T02:50:56.790Z,0
2018-02-02T02:51:37.327Z,0
2018-02-02T02:52:17.930Z,0
2018-02-02T02:52:58.434Z,0
2018-02-02T02:53:38.993Z,0
2018-02-02T02:54:19.545Z,0
2018-02-02T02:55:00.142Z,0
2018-02-02T02:55:40.614Z,0
2018-02-02T02:56:21.125Z,0
2018-02-02T02:57:01.666Z,0
2018-02-02T02:57:42.225Z,0
2018-02-02T02:58:22.755Z,0
2018-02-02T02:59:03.343Z,0
2018-02-02T02:59:43.840Z,0
2018-02-02T03:00:24.459Z,0
2018-02-02T03:01:05.025Z,0
2018-02-02T03:01:45.531Z,0
2018-02-02T03:02:26.085Z,0
2018-02-02T03:03:06.618Z,0
2018-02-02T03:03:47.108Z,0
2018-02-02T03:04:27.705Z,0
2018-02-02T03:05:08.252Z,0
2018-02-02T03:05:48.804Z,0
2018-02-02T03:06:29.364Z,0
2018-02-02T03:07:09.873Z,0
2018-02-02T03:07:50.444Z,0
2018-02-02T03:08:30.934Z,0
2018-02-02T03:09:11.493Z,0
2018-02-02T03:09:52.012Z,0
2018-02-02T03:10:32.571Z,0
2018-02-02T03:11:13.092Z,0
2018-02-02T03:11:53.644Z,0
2018-02-02T03:12:34.188Z,0
2018-02-02T03:13:14.736Z,0
2018-02-02T03:13:55.241Z,0
2018-02-02T03:14:35.830Z,0
2018-02-02T03:15:16.347Z,0
2018-02-02T03:15:56.901Z,0
2018-02-02T03:16:37.398Z,0
2018-02-02T03:17:17.950Z,0
2018-02-02T03:17:58.462Z,0
2018-02-02T03:18:39.044Z,0
2018-02-02T03:19:19.542Z,0
2018-02-02T03:20:00.075Z,0
2018-02-02T03:20:40.704Z,0
2018-02-02T03:21:21.224Z,0
2018-02-02T03:22:01.755Z,0
2018-02-02T03:22:42.274Z,0
2018-02-02T03:23:22.818Z,0
2018-02-02T03:24:03.390Z,0
2018-02-02T03:24:43.990Z,0
2018-02-02T03:25:24.589Z,0
2018-02-02T03:26:05.096Z,0
2018-02-02T03:26:45.623Z,0
2018-02-02T03:27:26.156Z,0
2018-02-02T03:28:06.639Z,0
2018-02-02T03:28:47.223Z,0
2018-02-02T03:29:27.724Z,0
2018-02-02T03:30:08.287Z,0
2018-02-02T03:30:48.841Z,0
2018-02-02T03:31:29.433Z,0
2018-02-02T03:32:09.954Z,0
2018-02-02T03:32:50.544Z,0
2018-02-02T03:33:31.034Z,0
2018-02-02T03:34:11.574Z,0
2018-02-02T03:34:52.132Z,0
2018-02-02T03:35:32.681Z,0
2018-02-02T03:36:13.237Z,0
2018-02-02T03:36:53.793Z,0
2018-02-02T03:37:34.419Z,0
2018-02-02T03:38:14.909Z,0
2018-02-02T03:38:55.478Z,0
2018-02-02T03:39:36.009Z,0
2018-02-02T03:40:16.560Z,0
2018-02-02T03:40:57.090Z,0
2018-02-02T03:41:37.634Z,0
2018-02-02T03:42:18.141Z,0
2018-02-02T03:42:58.644Z,0
2018-02-02T03:43:39.209Z,0
2018-02-02T03:44:19.815Z,0
2018-02-02T03:45:00.552Z,0
2018-02-02T03:45:40.839Z,0
2018-02-02T03:46:21.413Z,0
2018-02-02T03:47:01.923Z,0
2018-02-02T03:47:42.443Z,0
2018-02-02T03:48:23.005Z,0
2018-02-02T03:49:03.546Z,0
2018-02-02T03:49:44.060Z,0
2018-02-02T03:50:24.619Z,0
2018-02-02T03:51:05.184Z,0
2018-02-02T03:51:45.777Z,0
2018-02-02T03:52:26.262Z,0
2018-02-02T03:53:06.826Z,0
2018-02-02T03:53:47.328Z,0
2018-02-02T03:54:27.924Z,0
2018-02-02T03:55:08.477Z,0
2018-02-02T03:55:48.996Z,0
2018-02-02T03:56:29.518Z,0
2018-02-02T03:57:10.153Z,0
2018-02-02T03:57:50.684Z,0
2018-02-02T03:58:32.946Z,0
2018-02-02T03:59:13.459Z,0
2018-02-02T03:59:54.020Z,0
2018-02-02T04:00:34.544Z,0
2018-02-02T04:01:15.124Z,0
2018-02-02T04:01:55.671Z,0
2018-02-02T04:02:36.273Z,0
2018-02-02T04:03:16.729Z,0
2018-02-02T04:03:57.295Z,0
2018-02-02T04:04:37.917Z,0
2018-02-02T04:05:18.411Z,0
2018-02-02T04:05:58.944Z,0
2018-02-02T04:06:39.481Z,0
2018-02-02T04:07:20.017Z,0
2018-02-02T04:08:00.540Z,0
2018-02-02T04:08:41.090Z,0
2018-02-02T04:09:21.635Z,0
2018-02-02T04:10:02.182Z,0
2018-02-02T04:10:42.742Z,0
2018-02-02T04:11:23.239Z,0
2018-02-02T04:12:03.785Z,0
2018-02-02T04:12:44.315Z,0
2018-02-02T04:13:24.799Z,0
2018-02-02T04:14:05.326Z,0
2018-02-02T04:14:45.880Z,0
2018-02-02T04:15:26.423Z,0
2018-02-02T04:16:06.959Z,0
2018-02-02T04:16:47.489Z,0
2018-02-02T04:17:28.054Z,0
2018-02-02T04:18:08.586Z,0
2018-02-02T04:18:49.134Z,0
2018-02-02T04:19:29.664Z,0
2018-02-02T04:20:10.207Z,0
2018-02-02T04:20:50.740Z,0
2018-02-02T04:21:31.276Z,0
2018-02-02T04:22:11.796Z,0
2018-02-02T04:22:52.389Z,0
2018-02-02T04:23:32.905Z,0
2018-02-02T04:24:13.446Z,0
2018-02-02T04:24:54.028Z,0
2018-02-02T04:25:34.563Z,0
2018-02-02T04:26:15.107Z,0
2018-02-02T04:26:55.589Z,0
2018-02-02T04:27:36.155Z,0
2018-02-02T04:28:16.777Z,0
2018-02-02T04:28:57.244Z,0
2018-02-02T04:29:37.812Z,0
2018-02-02T04:30:18.340Z,0
2018-02-02T04:30:58.846Z,0
2018-02-02T04:31:39.404Z,0
2018-02-02T04:32:19.902Z,0
2018-02-02T04:33:00.482Z,0
2018-02-02T04:33:41.057Z,0
2018-02-02T04:34:21.520Z,0
2018-02-02T04:35:02.084Z,0
2018-02-02T04:35:42.621Z,0
2018-02-02T04:36:23.122Z,0
2018-02-02T04:37:03.696Z,0
2018-02-02T04:37:44.197Z,0
2018-02-02T04:38:24.794Z,0
2018-02-02T04:39:05.312Z,0
2018-02-02T04:39:45.854Z,0
2018-02-02T04:40:26.905Z,0
2018-02-02T04:41:07.437Z,0
2018-02-02T04:41:48.032Z,0
2018-02-02T04:42:28.528Z,0
2018-02-02T04:43:09.027Z,0
2018-02-02T04:43:49.599Z,0
2018-02-02T04:44:30.163Z,0
2018-02-02T04:45:10.790Z,0
2018-02-02T04:45:51.413Z,0
2018-02-02T04:46:31.869Z,0
2018-02-02T04:47:12.447Z,0
2018-02-02T04:47:52.983Z,0
2018-02-02T04:48:33.635Z,0
2018-02-02T04:49:14.197Z,0
2018-02-02T04:49:54.887Z,0
2018-02-02T04:50:35.486Z,0
2018-02-02T04:51:15.964Z,0
2018-02-02T04:51:56.517Z,0
2018-02-02T04:52:37.036Z,0
2018-02-02T04:53:17.635Z,0
2018-02-02T04:53:58.131Z,0
2018-02-02T04:54:38.982Z,0
2018-02-02T04:55:19.481Z,0
2018-02-02T04:56:00.076Z,0
2018-02-02T04:56:40.560Z,0
2018-02-02T04:57:21.113Z,0
2018-02-02T04:58:01.648Z,0
2018-02-02T04:58:42.195Z,0
2018-02-02T04:59:22.800Z,0
2018-02-02T05:00:03.344Z,0
2018-02-02T05:00:43.868Z,0
2018-02-02T05:01:24.403Z,0
2018-02-02T05:02:04.970Z,0
2018-02-02T05:02:45.498Z,0
2018-02-02T05:03:26.034Z,0
2018-02-02T05:04:06.549Z,0
2018-02-02T05:04:47.064Z,0
2018-02-02T05:05:27.632Z,0
2018-02-02T05:06:08.090Z,0
2018-02-02T05:06:48.686Z,0
2018-02-02T05:07:29.178Z,0
2018-02-02T05:08:09.732Z,0
2018-02-02T05:08:50.305Z,0
2018-02-02T05:09:30.862Z,0
2018-02-02T05:10:11.438Z,0
2018-02-02T05:10:52.012Z,0
2018-02-02T05:11:32.500Z,0
2018-02-02T05:12:13.033Z,0
2018-02-02T05:12:53.627Z,0
2018-02-02T05:13:34.123Z,0
2018-02-02T05:14:14.643Z,0
2018-02-02T05:14:55.208Z,0
2018-02-02T05:15:35.704Z,0
2018-02-02T05:16:16.297Z,0
2018-02-02T05:16:56.784Z,0
2018-02-02T05:17:37.280Z,0
2018-02-02T05:18:17.801Z,0
2018-02-02T05:18:58.364Z,0
2018-02-02T05:19:39.083Z,0
2018-02-02T05:20:19.489Z,0
2018-02-02T05:21:00.013Z,0
2018-02-02T05:21:40.613Z,0
2018-02-02T05:22:21.235Z,0
2018-02-02T05:23:01.808Z,0
2018-02-02T05:23:42.332Z,0
2018-02-02T05:24:22.850Z,0
2018-02-02T05:25:03.374Z,0
2018-02-02T05:25:43.904Z,0
2018-02-02T05:26:24.424Z,0
2018-02-02T05:27:04.978Z,0
2018-02-02T05:27:45.551Z,0
2018-02-02T05:28:26.025Z,0
2018-02-02T05:29:06.544Z,0
2018-02-02T05:29:47.141Z,0
2018-02-02T05:30:27.652Z,0
2018-02-02T05:31:08.196Z,0
2018-02-02T05:31:48.754Z,0
2018-02-02T05:32:29.261Z,0
2018-02-02T05:33:09.871Z,0
2018-02-02T05:33:50.396Z,0
2018-02-02T05:34:30.957Z,0
2018-02-02T05:35:11.479Z,0
2018-02-02T05:35:52.051Z,0
2018-02-02T05:36:32.590Z,0
2018-02-02T05:37:13.158Z,0
2018-02-02T05:37:53.766Z,0
2018-02-02T05:38:34.203Z,0
2018-02-02T05:39:14.781Z,0
2018-02-02T05:39:55.490Z,0
2018-02-02T05:40:36.035Z,0
2018-02-02T05:41:16.481Z,0
2018-02-02T05:41:57.044Z,0
2018-02-02T05:42:37.542Z,0
2018-02-02T05:43:18.054Z,0
2018-02-02T05:43:58.660Z,0
2018-02-02T05:44:39.212Z,0
2018-02-02T05:45:19.762Z,0
2018-02-02T05:46:00.242Z,0
2018-02-02T05:46:40.749Z,0
2018-02-02T05:47:21.242Z,0
2018-02-02T05:48:01.802Z,0
2018-02-02T05:48:42.303Z,0
2018-02-02T05:49:22.845Z,0
2018-02-02T05:50:03.407Z,0
2018-02-02T05:50:43.911Z,0
2018-02-02T05:51:24.540Z,0
2018-02-02T05:52:05.029Z,0
2018-02-02T05:52:45.564Z,0
2018-02-02T05:53:26.149Z,0
2018-02-02T05:54:06.699Z,0
2018-02-02T05:54:47.215Z,0
2018-02-02T05:55:27.742Z,0
2018-02-02T05:56:08.289Z,0
2018-02-02T05:56:48.846Z,0
2018-02-02T05:57:29.382Z,0
2018-02-02T05:58:09.917Z,0
2018-02-02T05:58:50.472Z,0
2018-02-02T05:59:31.124Z,0
2018-02-02T06:00:11.662Z,0
2018-02-02T06:00:52.203Z,0
2018-02-02T06:01:32.732Z,0
2018-02-02T06:02:13.293Z,0
2018-02-02T06:02:53.793Z,0
2018-02-02T06:03:34.376Z,0
2018-02-02T06:04:14.931Z,0
2018-02-02T06:04:55.517Z,0
2018-02-02T06:05:36.314Z,0
2018-02-02T06:06:17.390Z,0
2018-02-02T06:06:57.438Z,0
2018-02-02T06:07:40.760Z,0
2018-02-02T06:08:21.313Z,0
2018-02-02T06:09:02.387Z,0
2018-02-02T06:09:43.038Z,0
2018-02-02T06:10:23.668Z,0
2018-02-02T06:11:04.184Z,0
2018-02-02T06:11:44.753Z,0
2018-02-02T06:12:25.324Z,0
2018-02-02T06:13:05.856Z,0
2018-02-02T06:13:46.706Z,0
2018-02-02T06:14:27.215Z,0
2018-02-02T06:15:07.796Z,0
2018-02-02T06:15:48.521Z,0
2018-02-02T06:16:28.935Z,0
2018-02-02T06:17:09.415Z,0
2018-02-02T06:17:49.983Z,0
2018-02-02T06:18:30.707Z,0
2018-02-02T06:19:11.101Z,0
2018-02-02T06:19:51.734Z,0
2018-02-02T06:20:32.329Z,0
2018-02-02T06:21:12.814Z,0
2018-02-02T06:21:53.343Z,0
2018-02-02T06:22:33.853Z,0
2018-02-02T06:23:14.483Z,0
2018-02-02T06:23:55.072Z,0
2018-02-02T06:24:35.573Z,0
2018-02-02T06:25:16.573Z,0
2018-02-02T06:25:56.843Z,0
2018-02-02T06:26:37.605Z,0
2018-02-02T06:27:18.448Z,0
2018-02-02T06:27:58.949Z,4
2018-02-02T06:28:39.468Z,4
2018-02-02T06:29:20.036Z,4
2018-02-02T06:30:00.649Z,0
2018-02-02T06:30:41.961Z,0
2018-02-02T06:31:24.229Z,4
2018-02-02T06:32:04.762Z,4
2018-02-02T06:32:45.326Z,4
2018-02-02T06:33:25.847Z,4
2018-02-02T06:34:06.343Z,4
2018-02-02T06:34:46.828Z,4
2018-02-02T06:35:27.446Z,8
2018-02-02T06:36:07.914Z,4
2018-02-02T06:36:48.505Z,4
2018-02-02T06:37:29.037Z,8
2018-02-02T06:38:09.565Z,4
2018-02-02T06:38:50.148Z,4
2018-02-02T06:39:30.641Z,8
2018-02-02T06:40:11.285Z,8
2018-02-02T06:40:51.700Z,8
2018-02-02T06:41:32.232Z,12
2018-02-02T06:42:12.855Z,12
2018-02-02T06:42:53.339Z,16
2018-02-02T06:43:33.886Z,12
2018-02-02T06:44:14.385Z,20
2018-02-02T06:44:54.940Z,20
2018-02-02T06:45:35.532Z,20
2018-02-02T06:46:16.043Z,24
2018-02-02T06:46:56.558Z,24
2018-02-02T06:47:37.184Z,28
2018-02-02T06:48:17.660Z,28
2018-02-02T06:48:58.299Z,28
2018-02-02T06:49:38.776Z,28
2018-02-02T06:50:19.303Z,28
2018-02-02T06:50:59.902Z,28
2018-02-02T06:51:40.408Z,28
2018-02-02T06:52:21.118Z,36
2018-02-02T06:53:01.539Z,40
2018-02-02T06:53:42.058Z,44
2018-02-02T06:54:22.569Z,44
2018-02-02T06:55:03.201Z,44
2018-02-02T06:55:43.668Z,44
2018-02-02T06:56:24.158Z,48
2018-02-02T06:57:04.742Z,44
2018-02-02T06:57:45.348Z,52
2018-02-02T06:58:26.122Z,56
2018-02-02T06:59:06.698Z,52
2018-02-02T06:59:47.216Z,56
2018-02-02T07:00:27.746Z,60
2018-02-02T07:01:08.265Z,60
2018-02-02T07:01:48.830Z,60
2018-02-02T07:02:29.347Z,60
2018-02-02T07:03:09.908Z,64
2018-02-02T07:03:50.475Z,68
2018-02-02T07:04:30.997Z,76
2018-02-02T07:05:11.519Z,84
2018-02-02T07:05:52.192Z,88
2018-02-02T07:06:32.676Z,92
2018-02-02T07:07:13.611Z,108
2018-02-02T07:07:54.186Z,116
2018-02-02T07:08:34.784Z,128
2018-02-02T07:09:15.334Z,144
2018-02-02T07:09:55.869Z,164
2018-02-02T07:10:36.386Z,176
2018-02-02T07:11:16.956Z,188
2018-02-02T07:11:57.529Z,200
2018-02-02T07:12:38.090Z,220
2018-02-02T07:13:18.653Z,240
2018-02-02T07:13:59.209Z,256
2018-02-02T07:14:39.748Z,272
2018-02-02T07:15:20.305Z,292
2018-02-02T07:16:00.861Z,312
2018-02-02T07:16:41.431Z,308
2018-02-02T07:17:21.953Z,336
2018-02-02T07:18:02.553Z,348
2018-02-02T07:18:43.104Z,364
2018-02-02T07:19:23.725Z,392
2018-02-02T07:20:04.235Z,408
2018-02-02T07:20:44.842Z,428
2018-02-02T07:21:25.438Z,460
2018-02-02T07:22:05.878Z,480
2018-02-02T07:22:46.416Z,500
2018-02-02T07:23:27.168Z,516
2018-02-02T07:24:07.669Z,544
2018-02-02T07:24:48.340Z,584
2018-02-02T07:25:28.904Z,620
2018-02-02T07:26:09.371Z,632
2018-02-02T07:26:49.967Z,620
2018-02-02T07:27:30.520Z,608
2018-02-02T07:28:11.042Z,624
2018-02-02T07:28:51.553Z,644
2018-02-02T07:29:32.120Z,680
2018-02-02T07:30:12.673Z,696
2018-02-02T07:30:53.199Z,704
2018-02-02T07:31:33.688Z,728
2018-02-02T07:32:14.278Z,748
2018-02-02T07:32:54.761Z,784
2018-02-02T07:33:35.311Z,832
2018-02-02T07:34:15.831Z,848
2018-02-02T07:34:56.334Z,844
2018-02-02T07:35:36.903Z,832
2018-02-02T07:36:17.450Z,792
2018-02-02T07:36:58.078Z,740
2018-02-02T07:37:38.583Z,708
2018-02-02T07:38:19.172Z,724
2018-02-02T07:38:59.758Z,768
2018-02-02T07:39:40.347Z,840
2018-02-02T07:40:20.855Z,908
2018-02-02T07:41:01.473Z,988
2018-02-02T07:41:42.017Z,1032
2018-02-02T07:42:22.615Z,1088
2018-02-02T07:43:03.115Z,1140
2018-02-02T07:43:43.691Z,1136
2018-02-02T07:44:24.247Z,1148
2018-02-02T07:45:04.844Z,1168
2018-02-02T07:45:45.354Z,1164
2018-02-02T07:46:25.879Z,1168
2018-02-02T07:47:06.458Z,1172
2018-02-02T07:47:47.086Z,1116
2018-02-02T07:48:27.638Z,1060
2018-02-02T07:49:08.141Z,1124
2018-02-02T07:49:48.693Z,1180
2018-02-02T07:50:29.229Z,1204
2018-02-02T07:51:09.818Z,1224
2018-02-02T07:51:50.310Z,1236
2018-02-02T07:52:30.854Z,1220
2018-02-02T07:53:11.390Z,1232
2018-02-02T07:53:52.004Z,1232
2018-02-02T07:54:32.518Z,1200
2018-02-02T07:55:13.050Z,1112
2018-02-02T07:55:53.621Z,1084
2018-02-02T07:56:34.075Z,1072
2018-02-02T07:57:14.589Z,1020
2018-02-02T07:57:55.113Z,984
2018-02-02T07:58:35.643Z,968
2018-02-02T07:59:16.267Z,960
2018-02-02T07:59:56.773Z,960
2018-02-02T08:00:37.298Z,952
2018-02-02T08:01:17.823Z,976
2018-02-02T08:01:58.359Z,992
2018-02-02T08:02:38.955Z,984
2018-02-02T08:03:19.470Z,1036
2018-02-02T08:04:00.043Z,1080
2018-02-02T08:04:40.521Z,1048
2018-02-02T08:05:21.050Z,1016
2018-02-02T08:06:01.579Z,992
2018-02-02T08:06:42.094Z,980
2018-02-02T08:07:22.651Z,944
2018-02-02T08:08:03.429Z,888
2018-02-02T08:08:43.974Z,864
2018-02-02T08:09:24.506Z,828
2018-02-02T08:10:05.090Z,804
2018-02-02T08:10:45.690Z,788
2018-02-02T08:11:26.194Z,792
2018-02-02T08:12:06.758Z,776
2018-02-02T08:12:47.357Z,784
2018-02-02T08:13:27.849Z,796
2018-02-02T08:14:08.427Z,796
2018-02-02T08:14:48.959Z,816
2018-02-02T08:15:29.526Z,840
2018-02-02T08:16:10.094Z,844
2018-02-02T08:16:50.672Z,848
2018-02-02T08:17:31.189Z,872
2018-02-02T08:18:11.713Z,884
2018-02-02T08:18:52.263Z,884
2018-02-02T08:19:32.734Z,880
2018-02-02T08:20:13.311Z,904
2018-02-02T08:20:53.807Z,888
2018-02-02T08:21:34.306Z,920
2018-02-02T08:22:14.874Z,924
2018-02-02T08:22:55.448Z,916
2018-02-02T08:23:35.995Z,908
2018-02-02T08:24:16.568Z,880
2018-02-02T08:24:57.199Z,860
2018-02-02T08:25:37.740Z,876
2018-02-02T08:26:18.296Z,868
2018-02-02T08:26:58.957Z,860
2018-02-02T08:27:39.604Z,884
2018-02-02T08:28:20.122Z,936
2018-02-02T08:29:00.631Z,972
2018-02-02T08:29:41.179Z,916
2018-02-02T08:30:21.701Z,880
2018-02-02T08:31:02.229Z,884
2018-02-02T08:31:42.813Z,876
2018-02-02T08:32:23.442Z,900
2018-02-02T08:33:03.958Z,876
2018-02-02T08:33:44.544Z,896
2018-02-02T08:34:25.092Z,956
2018-02-02T08:35:05.625Z,1028
2018-02-02T08:35:46.140Z,1052
2018-02-02T08:36:26.697Z,1008
2018-02-02T08:37:07.222Z,980
2018-02-02T08:37:47.830Z,988
2018-02-02T08:38:28.362Z,1016
2018-02-02T08:39:08.849Z,1052
2018-02-02T08:39:49.394Z,1128
2018-02-02T08:40:29.929Z,1296
2018-02-02T08:41:10.512Z,1492
2018-02-02T08:41:51.077Z,1616
2018-02-02T08:42:31.594Z,1816
2018-02-02T08:43:12.100Z,2024
2018-02-02T08:43:52.634Z,2192
2018-02-02T08:44:33.176Z,2248
2018-02-02T08:45:13.753Z,2176
2018-02-02T08:45:54.240Z,2048
2018-02-02T08:46:34.832Z,1856
2018-02-02T08:47:15.363Z,1712
2018-02-02T08:47:55.926Z,1728
2018-02-02T08:48:36.386Z,1712
2018-02-02T08:49:16.928Z,1568
2018-02-02T08:49:57.492Z,1368
2018-02-02T08:50:38.034Z,1200
2018-02-02T08:51:18.513Z,1208
2018-02-02T08:51:59.045Z,1288
2018-02-02T08:52:39.571Z,1336
2018-02-02T08:53:20.126Z,1400
2018-02-02T08:54:00.650Z,1456
2018-02-02T08:54:41.220Z,1420
2018-02-02T08:55:21.779Z,1348
2018-02-02T08:56:02.289Z,1232
2018-02-02T08:56:42.866Z,1184
2018-02-02T08:57:23.453Z,1168
2018-02-02T08:58:03.963Z,1148
2018-02-02T08:58:44.527Z,1132
2018-02-02T08:59:25.145Z,1132
2018-02-02T09:00:05.690Z,1164
2018-02-02T09:00:46.260Z,1116
2018-02-02T09:01:26.753Z,1088
2018-02-02T09:02:07.354Z,1192
2018-02-02T09:02:47.935Z,1240
2018-02-02T09:03:28.402Z,1288
2018-02-02T09:04:08.984Z,1396
2018-02-02T09:04:49.541Z,1356
2018-02-02T09:05:30.128Z,1228
2018-02-02T09:06:10.593Z,1096
2018-02-02T09:06:51.161Z,1012
2018-02-02T09:07:31.718Z,1024
2018-02-02T09:08:12.337Z,1124
2018-02-02T09:08:52.863Z,1236
2018-02-02T09:09:33.415Z,1240
2018-02-02T09:10:13.927Z,1180
2018-02-02T09:10:54.498Z,1160
2018-02-02T09:11:35.015Z,1208
2018-02-02T09:12:15.517Z,1308
2018-02-02T09:12:56.057Z,1416
2018-02-02T09:13:36.630Z,1500
2018-02-02T09:14:17.134Z,1576
2018-02-02T09:14:57.670Z,1620
2018-02-02T09:15:38.214Z,1552
2018-02-02T09:16:18.755Z,1472
2018-02-02T09:16:59.271Z,1372
2018-02-02T09:17:39.813Z,1332
2018-02-02T09:18:20.476Z,1380
2018-02-02T09:19:00.949Z,1436
2018-02-02T09:19:41.575Z,1436
2018-02-02T09:20:22.075Z,1424
2018-02-02T09:21:02.608Z,1416
2018-02-02T09:21:43.158Z,1384
2018-02-02T09:22:23.702Z,1312
2018-02-02T09:23:04.207Z,1220
2018-02-02T09:23:44.771Z,1160
2018-02-02T09:24:25.364Z,1184
2018-02-02T09:25:05.965Z,1204
2018-02-02T09:25:46.489Z,1304
2018-02-02T09:26:27.051Z,1456
2018-02-02T09:27:07.565Z,1528
2018-02-02T09:27:48.078Z,1624
2018-02-02T09:28:28.640Z,1788
2018-02-02T09:29:09.197Z,1844
2018-02-02T09:29:49.733Z,1892
2018-02-02T09:30:30.300Z,1948
2018-02-02T09:31:10.859Z,2024
2018-02-02T09:31:51.428Z,1988
2018-02-02T09:32:31.906Z,1912
2018-02-02T09:33:12.449Z,1868
2018-02-02T09:33:52.951Z,1784
2018-02-02T09:34:33.544Z,1676
2018-02-02T09:35:14.117Z,1640
2018-02-02T09:35:54.647Z,1692
2018-02-02T09:36:35.167Z,1832
2018-02-02T09:37:15.747Z,1940
2018-02-02T09:37:56.311Z,1968
2018-02-02T09:38:36.850Z,1948
2018-02-02T09:39:17.371Z,1908
2018-02-02T09:39:57.860Z,1816
2018-02-02T09:40:38.447Z,1660
2018-02-02T09:41:18.958Z,1552
2018-02-02T09:41:59.569Z,1540
2018-02-02T09:42:40.093Z,1560
2018-02-02T09:43:20.574Z,1624
2018-02-02T09:44:01.152Z,1760